Portland, Oregon
Traffic Map
Current Weather Conditions
Portland, Oregon
Overcast Haze
Overcast
48°
Feels Like: 48°
Wind Chill: 48° Ceiling: 1600
Heat Index: 48° Visibility: 6mi
Dew Point: 48° Wind: 3mph
Humidity: 100% Direction: 140° (SE)
Pressure: 30.37in Gusts: 0mph
Raw Report DataKPDX 241200Z 14003KT 6SM BR FEW009 OVC016 09/09 A3037 RMK AO2 T00890089
Traffic Incident Summary
Active as of:
Severity:
Category:
InformationThere was an issue retrieving the traffic information for this location. Please try a different location or try again shortly.
Advertisements
Track Severe Weather on mobile